Time;durP1;ratioP1;P1;durP2;ratioP2;P2;SDS_P1;SDS_P2;PMS_P1;PMS_P2;Temp;Humidity;BMP_temperature;BMP_pressure;BME280_temperature;BME280_humidity;BME280_pressure;Samples;Min_cycle;Max_cycle;Signal;HPM_P1;HPM_P2
2023/07/10 00:02:00;;;;;;;5.43;4.93;;;;;;;24.55;98.71;100436.59;5064269;28;20213;-76
2023/07/10 00:04:26;;;;;;;5.70;5.10;;;;;;;24.50;98.39;100443.97;5064732;28;20666;-76
2023/07/10 00:06:51;;;;;;;5.60;5.00;;;;;;;24.45;97.77;100440.75;5062727;28;20237;-76
2023/07/10 00:09:16;;;;;;;5.07;4.67;;;;;;;24.41;96.77;100445.41;5073841;28;20236;-76
2023/07/10 00:11:43;;;;;;;5.43;5.03;;;;;;;24.35;96.02;100444.00;5066173;28;20182;-77
2023/07/10 00:14:21;;;;;;;5.83;5.33;;;;;;;24.32;95.62;100441.56;5064280;28;20186;-76
2023/07/10 00:16:47;;;;;;;5.30;4.80;;;;;;;24.31;95.95;100445.16;5051902;28;20189;-76
2023/07/10 00:19:14;;;;;;;4.70;4.30;;;;;;;24.30;95.60;100427.59;5060451;28;20216;-75
2023/07/10 00:21:40;;;;;;;4.87;4.47;;;;;;;24.32;95.01;100424.84;5061144;28;20198;-76
2023/07/10 00:24:05;;;;;;;5.23;4.83;;;;;;;24.32;94.85;100414.28;5053915;28;20642;-75
2023/07/10 00:26:31;;;;;;;5.00;4.50;;;;;;;24.33;95.66;100416.81;5063415;28;20194;-74
2023/07/10 00:28:58;;;;;;;5.23;4.73;;;;;;;24.33;96.19;100410.69;5066059;28;20581;-72
2023/07/10 00:31:24;;;;;;;5.40;5.00;;;;;;;24.35;97.17;100403.50;5063491;28;20288;-74
2023/07/10 00:33:50;;;;;;;5.17;4.67;;;;;;;24.36;97.79;100397.25;5060843;28;20231;-75
2023/07/10 00:36:29;;;;;;;5.83;5.40;;;;;;;24.31;97.57;100408.13;5063376;28;20181;-75
2023/07/10 00:38:56;;;;;;;5.73;5.23;;;;;;;24.28;97.66;100408.31;5063497;28;20301;-75
2023/07/10 00:41:23;;;;;;;5.73;5.23;;;;;;;24.24;97.33;100420.06;5060800;28;20712;-74
2023/07/10 00:43:55;;;;;;;6.07;5.57;;;;;;;24.21;97.15;100422.91;5063130;28;20182;-76
2023/07/10 00:46:34;;;;;;;5.40;4.90;;;;;;;24.19;98.04;100438.88;5066099;28;20210;-75
2023/07/10 00:49:08;;;;;;;5.80;5.30;;;;;;;24.17;98.64;100440.78;5067197;28;20289;-76
2023/07/10 00:51:54;;;;;;;6.10;5.60;;;;;;;24.13;98.63;100441.91;5066259;28;20196;-76
2023/07/10 00:54:42;;;;;;;5.77;5.30;;;;;;;24.09;99.22;100455.41;5066260;28;20197;-76
2023/07/10 00:57:20;;;;;;;5.90;5.50;;;;;;;24.03;99.46;100454.84;5068209;28;20190;-75
2023/07/10 00:59:46;;;;;;;5.40;5.00;;;;;;;23.98;99.59;100464.03;5064339;28;20238;-75
2023/07/10 01:02:11;;;;;;;5.90;5.40;;;;;;;23.92;99.56;100483.72;5062472;28;20745;-75
2023/07/10 01:04:39;;;;;;;5.93;5.13;;;;;;;23.89;99.85;100495.34;5066196;28;20572;-75
2023/07/10 01:07:07;;;;;;;5.33;4.83;;;;;;;23.86;99.66;100484.94;5062719;28;20194;-75
2023/07/10 01:09:33;;;;;;;5.83;5.43;;;;;;;23.85;99.51;100498.25;5065662;28;20250;-75
2023/07/10 01:11:58;;;;;;;5.60;5.20;;;;;;;23.82;98.89;100504.56;5061111;28;20187;-75
2023/07/10 01:14:24;;;;;;;5.87;5.37;;;;;;;23.80;98.12;100495.06;5066245;28;20194;-75
2023/07/10 01:16:50;;;;;;;5.40;5.00;;;;;;;23.79;97.92;100501.28;5067803;28;20305;-76
2023/07/10 01:19:23;;;;;;;6.10;5.50;;;;;;;23.80;98.21;100505.63;5060044;28;20628;-76
2023/07/10 01:21:50;;;;;;;5.77;5.27;;;;;;;23.81;97.46;100494.94;5062909;28;20198;-75
2023/07/10 01:24:16;;;;;;;6.30;5.73;;;;;;;23.82;96.17;100503.75;5061954;28;20225;-75
2023/07/10 01:26:42;;;;;;;6.43;5.83;;;;;;;23.84;95.46;100505.34;5063163;28;20281;-75
2023/07/10 01:29:42;;;;;;;7.00;5.60;;;;;;;23.88;94.72;100509.50;5059902;28;20297;-75
2023/07/10 01:32:10;;;;;;;5.37;4.90;;;;;;;23.92;93.66;100517.22;5061350;28;20190;-76
2023/07/10 01:34:40;;;;;;;6.33;5.73;;;;;;;23.95;93.16;100509.97;5060387;28;20195;-76
2023/07/10 01:37:06;;;;;;;5.50;5.10;;;;;;;23.99;93.06;100508.84;5054728;28;20214;-76
2023/07/10 01:39:41;;;;;;;6.00;5.40;;;;;;;24.04;92.91;100508.59;5061802;28;20662;-75
2023/07/10 01:42:07;;;;;;;5.63;4.93;;;;;;;24.07;93.31;100508.38;5060878;28;20288;-75
2023/07/10 01:44:39;;;;;;;5.63;5.03;;;;;;;24.14;93.95;100503.53;5067191;28;20194;-75
2023/07/10 01:47:07;;;;;;;5.37;4.87;;;;;;;24.16;93.92;100499.00;5061943;28;20186;-76
2023/07/10 01:49:55;;;;;;;5.53;5.03;;;;;;;24.17;93.55;100484.84;5061005;28;20589;-76
2023/07/10 01:52:22;;;;;;;4.70;4.40;;;;;;;24.19;93.32;100481.19;5081356;28;20174;-76
2023/07/10 01:54:47;;;;;;;5.17;4.77;;;;;;;24.22;93.32;100477.50;5062459;28;20185;-75
2023/07/10 01:57:14;;;;;;;5.10;4.70;;;;;;;24.25;93.38;100487.00;5063659;28;20221;-75
2023/07/10 01:59:40;;;;;;;5.53;5.10;;;;;;;24.27;93.88;100496.56;5063411;28;20277;-75
2023/07/10 02:02:06;;;;;;;5.10;4.60;;;;;;;24.28;93.34;100497.41;5064170;28;20313;-75
2023/07/10 02:04:33;;;;;;;5.97;5.47;;;;;;;24.27;92.56;100491.28;5068655;28;20192;-74
2023/07/10 02:06:58;;;;;;;5.57;4.93;;;;;;;24.27;91.79;100491.28;5059494;28;20187;-75
2023/07/10 02:09:26;;;;;;;5.70;5.13;;;;;;;24.29;91.12;100484.06;5060433;28;20526;-75
2023/07/10 02:11:52;;;;;;;5.50;5.00;;;;;;;24.30;90.87;100495.50;5061502;28;20189;-75
2023/07/10 02:14:18;;;;;;;6.07;5.47;;;;;;;24.31;91.00;100513.91;5064586;28;20773;-75
2023/07/10 02:16:44;;;;;;;6.00;5.50;;;;;;;24.31;90.60;100516.56;5062168;28;20291;-76
2023/07/10 02:19:10;;;;;;;6.00;5.40;;;;;;;24.32;90.48;100520.06;5063994;28;20205;-76
2023/07/10 02:21:35;;;;;;;6.47;5.83;;;;;;;24.31;90.32;100513.91;5064147;28;20236;-75
2023/07/10 02:24:01;;;;;;;7.27;5.90;;;;;;;24.31;90.10;100505.97;5063718;28;20210;-75
2023/07/10 02:26:28;;;;;;;6.60;6.00;;;;;;;24.29;89.92;100502.56;5060329;28;20198;-75
2023/07/10 02:28:54;;;;;;;6.27;5.33;;;;;;;24.29;89.90;100499.09;5062984;28;20210;-75
2023/07/10 02:31:20;;;;;;;8.07;5.30;;;;;;;24.26;90.15;100497.50;5062844;28;20193;-75
2023/07/10 02:33:45;;;;;;;6.33;5.67;;;;;;;24.24;90.33;100490.59;5061291;28;20194;-75
2023/07/10 02:36:11;;;;;;;6.23;5.63;;;;;;;24.23;90.39;100479.19;5065275;28;20197;-76
2023/07/10 02:38:36;;;;;;;5.93;5.43;;;;;;;24.22;90.54;100464.25;5063281;28;20214;-75
2023/07/10 02:41:01;;;;;;;6.13;5.53;;;;;;;24.21;90.64;100441.41;5059007;28;20896;-74
2023/07/10 02:43:27;;;;;;;5.93;5.33;;;;;;;24.20;90.82;100432.63;5062569;28;20207;-75
2023/07/10 02:45:52;;;;;;;5.80;5.00;;;;;;;24.17;90.89;100439.91;5057979;28;20177;-75
2023/07/10 02:48:17;;;;;;;6.10;5.47;;;;;;;24.15;91.09;100447.94;5061701;28;20631;-75
2023/07/10 02:50:43;;;;;;;5.60;5.10;;;;;;;24.15;91.69;100484.09;5062996;28;20205;-75
2023/07/10 02:53:08;;;;;;;6.00;5.40;;;;;;;24.15;92.34;100531.69;5059724;28;20661;-75
2023/07/10 02:55:34;;;;;;;5.73;5.23;;;;;;;24.13;92.28;100538.84;5061145;28;20187;-76
2023/07/10 02:58:00;;;;;;;6.73;5.80;;;;;;;24.08;92.08;100535.66;5059415;28;20213;-76
2023/07/10 03:00:26;;;;;;;6.87;6.10;;;;;;;24.05;91.90;100529.63;5061126;28;20287;-75
2023/07/10 03:02:55;;;;;;;5.63;5.20;;;;;;;24.04;92.57;100556.16;5062574;28;20217;-76
2023/07/10 03:05:24;;;;;;;6.60;6.03;;;;;;;24.09;92.72;100547.94;5054925;28;20186;-76
2023/07/10 03:07:50;;;;;;;7.53;5.90;;;;;;;24.03;93.08;100539.44;5058890;28;20214;-76
2023/07/10 03:10:16;;;;;;;6.57;5.97;;;;;;;24.01;93.43;100533.41;5061062;28;20208;-75
2023/07/10 03:12:41;;;;;;;6.63;6.00;;;;;;;24.00;94.62;100552.00;5060462;28;20186;-75
2023/07/10 03:15:07;;;;;;;6.10;5.50;;;;;;;24.00;95.03;100566.06;5054291;28;20267;-75
2023/07/10 03:17:33;;;;;;;6.90;5.73;;;;;;;23.99;95.69;100568.81;5058381;28;20569;-75
2023/07/10 03:19:58;;;;;;;8.23;5.73;;;;;;;23.99;95.94;100545.84;5058731;28;20185;-75
2023/07/10 03:22:23;;;;;;;6.63;6.03;;;;;;;24.01;96.69;100559.00;5059023;28;20350;-75
2023/07/10 03:24:52;;;;;;;6.10;5.50;;;;;;;24.01;97.25;100562.47;5057007;28;20190;-75
2023/07/10 03:27:17;;;;;;;6.93;5.60;;;;;;;24.03;97.54;100567.69;5056782;28;20232;-75
2023/07/10 03:29:42;;;;;;;7.77;5.80;;;;;;;24.07;97.93;100568.34;5061209;28;20220;-74
2023/07/10 03:32:08;;;;;;;7.17;5.97;;;;;;;24.07;98.13;100563.88;5060566;28;20185;-75
2023/07/10 03:34:34;;;;;;;7.00;5.70;;;;;;;24.09;98.52;100575.22;5058945;28;20320;-75
2023/07/10 03:36:59;;;;;;;6.23;5.70;;;;;;;24.13;99.09;100597.03;5064534;28;20281;-74
2023/07/10 03:39:24;;;;;;;6.73;5.87;;;;;;;24.15;100.00;100600.44;5056678;28;20274;-75
2023/07/10 03:41:50;;;;;;;6.37;5.77;;;;;;;24.16;100.00;100592.41;5057643;28;20207;-74
2023/07/10 03:44:15;;;;;;;6.73;6.13;;;;;;;24.14;100.00;100589.03;5058316;28;20773;-75
2023/07/10 03:46:41;;;;;;;7.43;5.77;;;;;;;24.12;100.00;100585.63;5055429;28;20540;-76
2023/07/10 03:49:06;;;;;;;6.57;5.90;;;;;;;24.08;100.00;100576.16;5058899;28;20206;-74
2023/07/10 03:51:31;;;;;;;7.57;5.60;;;;;;;24.06;100.00;100567.47;5061848;28;20182;-74
2023/07/10 03:53:57;;;;;;;6.63;5.77;;;;;;;24.04;100.00;100562.28;5062407;28;20745;-74
2023/07/10 03:56:22;;;;;;;6.10;5.43;;;;;;;24.05;100.00;100563.13;5059627;28;20250;-74
2023/07/10 03:58:49;;;;;;;6.17;5.40;;;;;;;24.06;100.00;100562.19;5059498;28;20220;-75
2023/07/10 04:01:15;;;;;;;6.60;5.83;;;;;;;24.09;100.00;100558.53;5068042;28;20275;-76
2023/07/10 04:03:41;;;;;;;6.63;5.90;;;;;;;24.10;100.00;100574.28;5070192;28;20250;-75
2023/07/10 04:06:08;;;;;;;6.40;5.50;;;;;;;24.15;100.00;100568.69;5063952;28;20270;-74
2023/07/10 04:08:36;;;;;;;6.23;5.67;;;;;;;24.21;100.00;100581.56;5057117;28;20426;-75
2023/07/10 04:11:06;;;;;;;7.53;5.90;;;;;;;24.29;100.00;100581.09;5063463;28;20885;-75
2023/07/10 04:13:32;;;;;;;6.40;5.80;;;;;;;24.35;100.00;100592.13;5069610;28;20545;-75
2023/07/10 04:16:06;;;;;;;6.00;5.40;;;;;;;24.45;100.00;100610.06;5065064;28;20230;-74
2023/07/10 04:18:34;;;;;;;6.20;5.60;;;;;;;24.51;100.00;100605.22;5065161;28;20209;-73
2023/07/10 04:21:01;;;;;;;6.43;5.83;;;;;;;24.57;100.00;100606.66;5066993;28;20664;-75
2023/07/10 04:23:27;;;;;;;5.90;5.30;;;;;;;24.66;100.00;100615.78;5059795;28;20214;-75
2023/07/10 04:25:53;;;;;;;5.93;5.33;;;;;;;24.74;100.00;100624.16;5066800;28;20663;-75
2023/07/10 04:28:18;;;;;;;7.43;5.20;;;;;;;24.87;100.00;100633.94;5068160;28;20214;-76
2023/07/10 04:30:47;;;;;;;7.17;5.27;;;;;;;24.96;100.00;100622.75;5067001;28;20189;-75
2023/07/10 04:33:16;;;;;;;6.80;5.23;;;;;;;25.05;100.00;100621.31;5068687;28;20268;-76
2023/07/10 04:35:43;;;;;;;5.80;5.10;;;;;;;25.15;100.00;100619.78;5062625;28;20190;-76
2023/07/10 04:38:09;;;;;;;7.00;6.30;;;;;;;25.25;100.00;100609.44;5079908;28;20243;-76
2023/07/10 04:40:34;;;;;;;5.63;5.13;;;;;;;25.36;100.00;100616.66;5069786;28;20651;-75
2023/07/10 04:43:01;;;;;;;5.90;5.30;;;;;;;25.54;99.50;100630.53;5067575;28;20233;-76
2023/07/10 04:45:27;;;;;;;6.10;5.50;;;;;;;25.83;98.73;100628.56;5067369;28;20203;-75
2023/07/10 04:47:52;;;;;;;6.93;5.47;;;;;;;25.94;97.55;100637.59;5066991;28;20554;-75
2023/07/10 04:50:17;;;;;;;6.50;5.50;;;;;;;25.91;97.46;100641.28;5063386;28;20229;-74
2023/07/10 04:52:43;;;;;;;5.87;5.27;;;;;;;25.84;97.64;100642.69;5062017;28;20304;-74
2023/07/10 04:55:08;;;;;;;6.97;5.40;;;;;;;25.81;97.46;100640.22;5062208;28;20243;-75
2023/07/10 04:57:33;;;;;;;5.90;5.40;;;;;;;25.75;97.71;100643.28;5069862;28;20712;-75
2023/07/10 04:59:59;;;;;;;6.07;5.47;;;;;;;25.95;97.74;100644.56;5064692;28;20181;-75
2023/07/10 05:02:24;;;;;;;5.73;5.20;;;;;;;26.40;96.27;100639.72;5065379;28;21011;-75
2023/07/10 05:04:49;;;;;;;6.30;5.70;;;;;;;26.64;95.42;100644.25;5055662;28;20182;-75
2023/07/10 05:07:15;;;;;;;5.73;5.23;;;;;;;26.87;94.12;100644.44;5059849;28;22034;-75
2023/07/10 05:09:40;;;;;;;6.17;5.57;;;;;;;26.99;93.50;100648.88;5060594;28;20182;-76
2023/07/10 05:12:06;;;;;;;8.93;5.90;;;;;;;27.15;93.08;100653.91;5055991;28;20190;-75
2023/07/10 05:14:31;;;;;;;6.20;5.60;;;;;;;27.39;92.62;100659.22;5055918;28;20292;-75
2023/07/10 05:16:57;;;;;;;7.20;5.37;;;;;;;27.83;91.74;100666.66;5058240;28;20190;-76
2023/07/10 05:19:22;;;;;;;6.33;5.33;;;;;;;28.40;89.84;100667.63;5066707;28;20289;-75
2023/07/10 05:21:48;;;;;;;5.90;5.40;;;;;;;28.79;88.03;100675.25;5067550;28;20266;-76
2023/07/10 05:24:13;;;;;;;5.43;4.93;;;;;;;29.22;86.64;100675.41;5063784;28;20181;-75
2023/07/10 05:26:38;;;;;;;7.28;5.03;;;;;;;29.62;84.86;100664.13;5061013;28;20187;-76
2023/07/10 05:29:04;;;;;;;5.20;4.68;;;;;;;29.94;83.87;100677.44;5065708;28;20201;-76
2023/07/10 05:31:29;;;;;;;5.25;4.75;;;;;;;30.36;82.00;100678.38;5064175;28;20673;-76
2023/07/10 05:33:54;;;;;;;7.00;4.68;;;;;;;30.72;81.00;100673.47;5057318;28;20608;-76
2023/07/10 05:36:20;;;;;;;6.53;5.07;;;;;;;30.46;80.54;100687.28;5057931;28;20185;-76
2023/07/10 05:38:48;;;;;;;5.60;4.65;;;;;;;30.15;81.26;100686.41;5060176;28;20484;-75
2023/07/10 05:41:17;;;;;;;6.40;4.93;;;;;;;29.75;82.04;100687.97;5057963;28;20777;-75
2023/07/10 05:43:42;;;;;;;5.75;5.00;;;;;;;29.42;83.41;100685.28;5064673;28;20243;-76
2023/07/10 05:46:08;;;;;;;9.55;5.40;;;;;;;29.45;83.33;100678.88;5063184;28;20186;-75
2023/07/10 05:48:34;;;;;;;5.80;5.07;;;;;;;29.71;83.16;100682.03;5065198;28;20213;-75
2023/07/10 05:51:00;;;;;;;6.55;4.90;;;;;;;30.23;82.08;100674.09;5066910;28;20257;-76
2023/07/10 05:53:25;;;;;;;8.23;5.30;;;;;;;30.42;80.93;100681.34;5063808;28;20213;-76
2023/07/10 05:55:52;;;;;;;5.88;4.82;;;;;;;30.73;80.33;100675.16;5067366;28;20178;-76
2023/07/10 05:58:20;;;;;;;6.32;4.88;;;;;;;30.92;79.83;100677.06;5073413;28;20250;-76
2023/07/10 06:00:47;;;;;;;6.07;4.95;;;;;;;31.44;78.41;100682.22;5069612;28;20250;-76
2023/07/10 06:03:13;;;;;;;5.88;4.70;;;;;;;31.70;77.50;100675.44;5065662;28;20206;-75
2023/07/10 06:05:39;;;;;;;5.80;5.18;;;;;;;31.68;77.05;100682.78;5065945;28;20268;-75
2023/07/10 06:08:05;;;;;;;5.30;4.80;;;;;;;31.98;76.21;100688.94;5065030;28;21006;-75
2023/07/10 06:10:32;;;;;;;7.25;4.93;;;;;;;31.96;75.95;100688.25;5063569;28;20190;-75
2023/07/10 06:12:58;;;;;;;5.38;4.88;;;;;;;32.51;74.84;100690.22;5065034;28;20184;-75
2023/07/10 06:15:23;;;;;;;5.53;5.05;;;;;;;32.97;74.26;100684.91;5064983;28;20656;-76
2023/07/10 06:17:48;;;;;;;5.20;4.75;;;;;;;33.26;73.01;100684.72;5062484;28;20203;-76
2023/07/10 06:20:14;;;;;;;5.20;4.75;;;;;;;33.46;72.48;100695.31;5065179;28;20850;-76
2023/07/10 06:22:40;;;;;;;5.07;4.38;;;;;;;33.73;71.80;100689.00;5064294;28;20190;-76
2023/07/10 06:25:05;;;;;;;8.18;4.95;;;;;;;33.95;71.01;100694.91;5062064;28;20239;-77
2023/07/10 06:27:30;;;;;;;7.68;4.82;;;;;;;33.76;71.08;100687.00;5061834;28;20213;-76
2023/07/10 06:29:56;;;;;;;5.53;4.32;;;;;;;34.09;70.34;100695.31;5063023;28;20283;-76
2023/07/10 06:32:21;;;;;;;4.68;4.20;;;;;;;34.32;70.13;100691.09;5063381;28;20178;-75
2023/07/10 06:34:47;;;;;;;5.43;4.45;;;;;;;34.65;69.48;100682.34;5051631;28;20178;-77
2023/07/10 06:37:12;;;;;;;5.65;4.75;;;;;;;34.19;69.49;100694.19;5065632;28;20272;-75
2023/07/10 06:39:37;;;;;;;5.50;4.95;;;;;;;34.44;69.79;100696.19;5063388;28;20193;-76
2023/07/10 06:42:04;;;;;;;4.75;4.13;;;;;;;34.65;69.06;100683.19;5064394;28;20781;-75
2023/07/10 06:44:29;;;;;;;5.20;4.18;;;;;;;34.84;68.73;100689.31;5064669;28;20186;-76
2023/07/10 06:46:55;;;;;;;5.85;4.32;;;;;;;34.97;68.61;100679.97;5061315;28;20178;-77
2023/07/10 06:49:20;;;;;;;4.85;3.90;;;;;;;34.97;68.51;100677.28;5061174;28;20219;-76
2023/07/10 06:51:45;;;;;;;4.85;4.22;;;;;;;35.13;68.58;100673.75;5056761;28;20190;-76
2023/07/10 06:54:11;;;;;;;4.43;4.03;;;;;;;35.18;68.52;100672.25;5054946;28;20196;-75
2023/07/10 06:56:36;;;;;;;5.30;4.45;;;;;;;35.32;68.17;100676.13;5058908;28;20188;-76
2023/07/10 06:59:01;;;;;;;5.05;4.55;;;;;;;35.39;68.46;100673.63;5065389;28;20198;-76
2023/07/10 07:01:27;;;;;;;6.28;4.70;;;;;;;35.40;68.32;100673.44;5059718;28;20715;-75
2023/07/10 07:03:52;;;;;;;5.03;4.25;;;;;;;35.43;68.22;100677.66;5061104;28;20214;-76
2023/07/10 07:06:17;;;;;;;6.75;5.00;;;;;;;35.23;68.44;100682.53;5062394;28;20204;-75
2023/07/10 07:08:47;;;;;;;5.03;4.55;;;;;;;35.33;68.84;100685.91;5062615;28;20202;-76
2023/07/10 07:11:12;;;;;;;5.20;4.70;;;;;;;35.49;68.70;100700.41;5063030;28;20182;-77
2023/07/10 07:13:37;;;;;;;4.63;4.22;;;;;;;35.58;68.20;100702.06;5066382;28;20699;-76
2023/07/10 07:16:04;;;;;;;4.97;4.57;;;;;;;35.68;68.35;100707.28;5063286;28;20203;-76
2023/07/10 07:18:31;;;;;;;6.63;4.80;;;;;;;35.14;68.76;100710.41;5065456;28;20716;-76
2023/07/10 07:20:57;;;;;;;5.28;4.68;;;;;;;34.85;69.68;100722.41;5064162;28;20840;-77
2023/07/10 07:23:22;;;;;;;4.85;4.43;;;;;;;35.10;69.76;100704.53;5062140;28;20305;-76
2023/07/10 07:25:48;;;;;;;5.75;4.47;;;;;;;35.22;69.47;100730.09;5066217;28;20170;-75
2023/07/10 07:28:13;;;;;;;4.70;4.30;;;;;;;35.38;69.21;100725.75;5045778;28;20587;-76
2023/07/10 07:30:40;;;;;;;5.20;4.45;;;;;;;35.51;68.96;100720.75;5046075;28;20186;-75
2023/07/10 07:33:06;;;;;;;5.32;4.78;;;;;;;35.23;68.43;100723.72;5054289;28;20650;-76
2023/07/10 07:35:32;;;;;;;5.10;4.70;;;;;;;34.98;69.34;100722.81;5068165;28;20178;-77
2023/07/10 07:37:57;;;;;;;5.85;4.65;;;;;;;34.77;69.71;100728.59;5055192;28;20221;-76
2023/07/10 07:40:23;;;;;;;5.38;4.93;;;;;;;34.65;70.05;100736.94;5049240;28;20296;-76
2023/07/10 07:42:49;;;;;;;5.30;4.80;;;;;;;34.41;70.70;100739.50;5063520;28;20198;-76
2023/07/10 07:45:15;;;;;;;4.55;4.25;;;;;;;34.42;70.59;100738.50;5063245;28;20544;-75
2023/07/10 07:47:41;;;;;;;5.47;5.03;;;;;;;34.26;71.13;100739.22;5066606;28;20220;-75
2023/07/10 07:50:09;;;;;;;5.78;4.40;;;;;;;34.31;71.10;100743.13;5068053;28;20182;-75
2023/07/10 07:52:35;;;;;;;5.45;4.95;;;;;;;34.38;70.30;100740.63;5063459;28;20182;-75
2023/07/10 07:55:01;;;;;;;5.15;4.65;;;;;;;34.21;70.08;100737.03;5075966;28;20197;-76
2023/07/10 07:57:26;;;;;;;5.35;4.85;;;;;;;34.12;70.85;100743.31;5067685;28;20228;-76
2023/07/10 07:59:52;;;;;;;5.45;4.95;;;;;;;34.21;70.40;100737.03;5060534;28;20717;-75
2023/07/10 08:02:18;;;;;;;5.03;4.63;;;;;;;34.16;70.77;100740.19;5059565;28;20588;-76
2023/07/10 08:04:44;;;;;;;7.55;5.53;;;;;;;33.81;70.38;100741.91;5057305;28;20617;-75
2023/07/10 08:07:09;;;;;;;5.15;4.68;;;;;;;33.68;70.63;100744.16;5058367;28;20686;-76
2023/07/10 08:09:34;;;;;;;6.13;4.65;;;;;;;33.58;71.25;100746.91;5059950;28;20186;-76
2023/07/10 08:12:00;;;;;;;6.35;5.57;;;;;;;33.12;72.10;100737.03;5060202;28;20191;-75
2023/07/10 08:14:25;;;;;;;8.23;5.82;;;;;;;32.79;72.11;100739.28;5061277;28;20268;-76
2023/07/10 08:16:51;;;;;;;5.65;5.05;;;;;;;32.84;72.63;100738.88;5058949;28;20263;-76
2023/07/10 08:19:16;;;;;;;5.97;5.35;;;;;;;32.77;73.63;100737.75;5066395;28;20221;-75
2023/07/10 08:21:41;;;;;;;6.93;4.88;;;;;;;33.10;72.40;100743.53;5067587;28;20204;-76
2023/07/10 08:24:07;;;;;;;5.35;4.95;;;;;;;33.27;71.27;100741.88;5068014;28;20574;-75
2023/07/10 08:26:32;;;;;;;5.70;5.10;;;;;;;33.41;70.61;100744.06;5065658;28;20185;-76
2023/07/10 08:28:57;;;;;;;6.72;5.25;;;;;;;33.25;70.53;100733.13;5066643;28;20206;-76
2023/07/10 08:31:24;;;;;;;5.70;5.20;;;;;;;33.32;70.68;100739.59;5064778;28;20191;-75
2023/07/10 08:33:49;;;;;;;5.22;4.82;;;;;;;33.65;70.34;100749.81;5067543;28;20174;-76
2023/07/10 08:36:15;;;;;;;5.80;5.20;;;;;;;33.70;69.81;100739.47;5062794;28;20198;-76
2023/07/10 08:38:40;;;;;;;5.72;5.22;;;;;;;33.79;70.11;100749.25;5062530;28;20214;-76
2023/07/10 08:41:26;;;;;;;5.28;4.78;;;;;;;33.89;70.47;100736.63;5062074;28;20186;-76
2023/07/10 08:43:51;;;;;;;5.40;4.90;;;;;;;33.79;70.31;100745.75;5065613;28;20631;-75
2023/07/10 08:46:22;;;;;;;5.65;5.15;;;;;;;33.94;70.10;100743.38;5062902;28;20259;-76
2023/07/10 08:48:56;;;;;;;5.43;4.85;;;;;;;34.08;70.37;100734.75;5062052;28;20206;-75
2023/07/10 08:51:21;;;;;;;5.75;4.70;;;;;;;33.98;70.50;100740.22;5059529;28;20186;-76
2023/07/10 08:54:01;;;;;;;5.82;4.95;;;;;;;34.15;70.10;100735.81;5065439;28;20189;-75
2023/07/10 08:56:35;;;;;;;5.88;5.32;;;;;;;33.64;70.10;100732.88;5060673;28;20715;-77
2023/07/10 08:59:36;;;;;;;5.43;4.93;;;;;;;33.81;69.81;100735.69;5060854;28;20210;-76
2023/07/10 09:02:02;;;;;;;5.47;4.95;;;;;;;33.62;70.39;100724.13;5054773;28;20225;-75
2023/07/10 09:04:30;;;;;;;6.38;4.90;;;;;;;33.45;70.71;100720.44;5055988;28;20616;-76
2023/07/10 09:07:00;;;;;;;6.60;5.45;;;;;;;33.36;71.10;100724.06;5057571;28;20186;-75
2023/07/10 09:09:38;;;;;;;5.40;4.90;;;;;;;33.30;71.80;100725.47;5062485;28;20606;-76
2023/07/10 09:12:24;;;;;;;5.78;5.25;;;;;;;33.38;71.32;100725.59;5059836;28;20258;-76
2023/07/10 09:15:03;;;;;;;6.22;5.63;;;;;;;33.25;71.17;100723.25;5055391;28;20271;-76
2023/07/10 09:17:41;;;;;;;6.10;5.35;;;;;;;33.38;70.96;100730.94;5063241;28;20696;-76
2023/07/10 09:20:10;;;;;;;7.00;5.80;;;;;;;33.34;71.62;100728.69;5057175;28;20541;-76
2023/07/10 09:22:37;;;;;;;8.38;6.15;;;;;;;33.41;71.31;100735.19;5060005;28;20704;-75
2023/07/10 09:25:11;;;;;;;5.78;5.30;;;;;;;33.30;70.91;100728.16;5059739;28;20567;-75
2023/07/10 09:27:36;;;;;;;6.38;5.78;;;;;;;33.31;71.09;100715.59;5059389;28;20202;-76
2023/07/10 09:30:02;;;;;;;6.15;5.45;;;;;;;33.13;72.02;100725.31;5060304;28;20182;-76
2023/07/10 09:32:36;;;;;;;5.95;5.38;;;;;;;33.23;71.85;100725.25;5060149;28;20256;-76
2023/07/10 09:35:03;;;;;;;6.13;5.53;;;;;;;33.43;71.79;100722.44;5059475;28;20186;-76
2023/07/10 09:37:36;;;;;;;6.40;5.80;;;;;;;33.65;71.46;100723.84;5056023;28;20705;-77
2023/07/10 09:40:28;;;;;;;9.32;5.80;;;;;;;33.63;71.63;100720.47;5061750;28;20205;-75
2023/07/10 09:43:02;;;;;;;6.25;5.32;;;;;;;33.74;72.07;100722.91;5059200;28;20573;-76
2023/07/10 09:45:39;;;;;;;7.28;5.80;;;;;;;33.52;71.40;100724.22;5061933;28;20182;-76
2023/07/10 09:48:23;;;;;;;6.70;5.50;;;;;;;33.59;70.91;100727.13;5077231;28;20206;-77
2023/07/10 09:50:51;;;;;;;6.05;5.55;;;;;;;33.51;71.61;100719.84;5064673;28;20231;-75
2023/07/10 09:53:28;;;;;;;5.60;4.95;;;;;;;33.61;71.76;100724.28;5064317;28;20177;-76
2023/07/10 09:55:53;;;;;;;6.55;5.55;;;;;;;33.69;71.15;100721.69;5060110;28;20178;-76
2023/07/10 09:58:18;;;;;;;6.22;5.63;;;;;;;33.76;70.74;100722.72;5059973;28;20225;-75
2023/07/10 10:00:45;;;;;;;6.18;5.53;;;;;;;33.66;70.78;100716.63;5058664;28;20190;-75
2023/07/10 10:03:18;;;;;;;6.20;5.60;;;;;;;33.54;71.49;100716.00;5058898;28;20275;-77
2023/07/10 10:05:51;;;;;;;6.13;5.35;;;;;;;33.42;71.42;100712.72;5054198;28;20179;-77
2023/07/10 10:08:32;;;;;;;14.55;6.50;;;;;;;33.37;72.06;100712.34;5062028;28;20197;-75
2023/07/10 10:11:03;;;;;;;6.10;5.45;;;;;;;33.41;72.05;100717.25;5058253;28;20360;-75
2023/07/10 10:13:30;;;;;;;8.15;6.50;;;;;;;33.34;71.42;100715.28;5057166;28;20271;-76
2023/07/10 10:16:11;;;;;;;5.95;5.45;;;;;;;32.99;71.32;100717.78;5063040;28;20186;-76
2023/07/10 10:19:01;;;;;;;7.97;6.15;;;;;;;32.98;70.64;100708.06;5055736;28;20210;-77
2023/07/10 10:21:30;;;;;;;6.15;5.50;;;;;;;33.08;70.99;100716.03;5067459;28;20191;-76
2023/07/10 10:24:04;;;;;;;6.55;5.38;;;;;;;33.06;71.86;100702.75;5059808;28;20760;-76
2023/07/10 10:27:07;;;;;;;6.00;5.60;;;;;;;32.94;72.18;100710.19;5054487;28;20308;-75
2023/07/10 10:29:57;;;;;;;6.47;5.90;;;;;;;33.25;71.31;100695.59;5059285;28;20173;-75
2023/07/10 10:32:31;;;;;;;5.85;5.35;;;;;;;33.49;69.98;100699.53;5057235;28;20261;-76
2023/07/10 10:35:09;;;;;;;5.50;5.00;;;;;;;33.58;69.99;100695.94;5057808;28;20185;-77
2023/07/10 10:38:08;;;;;;;6.43;5.90;;;;;;;33.77;69.43;100694.88;5059270;28;20221;-75
2023/07/10 10:40:37;;;;;;;6.25;5.65;;;;;;;33.92;69.07;100695.22;5058108;28;20179;-77
2023/07/10 10:43:30;;;;;;;5.57;5.07;;;;;;;33.81;67.80;100698.97;5056124;28;20206;-75
2023/07/10 10:46:18;;;;;;;7.50;5.30;;;;;;;33.82;67.87;100699.78;5064276;28;20193;-76
2023/07/10 10:48:44;;;;;;;6.13;5.53;;;;;;;33.64;68.57;100691.78;5062571;28;20266;-77
2023/07/10 10:51:29;;;;;;;5.80;5.30;;;;;;;33.67;68.12;100686.09;5062843;28;20193;-77
2023/07/10 10:54:10;;;;;;;5.47;4.95;;;;;;;33.68;68.02;100683.25;5067270;28;20182;-77
2023/07/10 10:56:42;;;;;;;5.43;4.97;;;;;;;33.63;66.59;100695.44;5064692;28;20182;-76
2023/07/10 10:59:36;;;;;;;4.90;4.40;;;;;;;33.65;65.41;100688.09;5059963;28;20216;-76
2023/07/10 11:02:39;;;;;;;5.65;5.15;;;;;;;33.72;65.62;100697.22;5064818;28;20255;-76
2023/07/10 11:05:18;;;;;;;4.78;4.47;;;;;;;33.73;65.86;100682.81;5061437;28;20184;-75
2023/07/10 11:07:49;;;;;;;6.25;4.78;;;;;;;33.82;65.73;100679.16;5065181;28;20728;-76
2023/07/10 11:10:25;;;;;;;7.18;4.95;;;;;;;33.68;65.63;100680.56;5063367;28;20181;-77
2023/07/10 11:12:51;;;;;;;5.00;4.60;;;;;;;33.69;65.09;100681.44;5066564;28;20201;-76
2023/07/10 11:15:18;;;;;;;5.63;5.13;;;;;;;34.01;64.00;100672.78;5065109;28;20338;-76
2023/07/10 11:17:52;;;;;;;5.15;4.65;;;;;;;33.87;63.92;100674.19;5066587;28;20232;-76
2023/07/10 11:20:18;;;;;;;5.57;4.70;;;;;;;34.05;63.94;100675.97;5066507;28;20543;-76
2023/07/10 11:22:55;;;;;;;4.85;4.45;;;;;;;34.17;63.56;100671.19;5064096;28;20209;-76
2023/07/10 11:25:32;;;;;;;5.07;4.57;;;;;;;34.07;63.77;100671.28;5064809;28;20186;-76
2023/07/10 11:28:02;;;;;;;4.90;4.40;;;;;;;33.98;64.14;100665.03;5061888;28;20782;-76
2023/07/10 11:30:34;;;;;;;7.40;5.18;;;;;;;34.10;63.10;100665.63;5067909;28;20348;-75
2023/07/10 11:33:15;;;;;;;5.05;4.65;;;;;;;34.23;62.54;100643.69;5066919;28;20174;-76